Time;durP1;ratioP1;P1;durP2;ratioP2;P2;SDS_P1;SDS_P2;PMS_P1;PMS_P2;Temp;Humidity;BMP_temperature;BMP_pressure;BME280_temperature;BME280_humidity;BME280_pressure;Samples;Min_cycle;Max_cycle;Signal;HPM_P1;HPM_P2
2022/03/09 00:08:36;;;;;;;80.10;39.50;;;;;;;0.23;71.34;99237.58;432649;1271;97827;-42
2022/03/09 00:28:49;;;;;;;75.20;35.80;;;;;;;0.27;71.37;99233.14;432583;1271;107619;-42
2022/03/09 00:59:07;;;;;;;41.60;23.30;;;;;;;0.61;71.31;99225.20;432537;1271;108999;-41
2022/03/09 01:09:12;;;;;;;67.80;32.40;;;;;;;0.77;71.59;99216.15;432754;1271;97497;-40
2022/03/09 01:19:21;;;;;;;57.20;27.70;;;;;;;0.79;71.61;99209.49;432651;1273;96677;-41
2022/03/09 01:29:29;;;;;;;57.00;26.40;;;;;;;0.70;71.45;99197.74;432466;1271;111365;-40
2022/03/09 01:49:40;;;;;;;54.30;26.00;;;;;;;0.50;71.57;99174.33;432403;1271;108811;-40
2022/03/09 01:59:48;;;;;;;67.20;34.20;;;;;;;0.40;71.84;99167.39;432519;1272;97916;-42
2022/03/09 02:09:55;;;;;;;47.70;26.10;;;;;;;0.39;71.68;99172.73;432574;1272;111250;-42
2022/03/09 02:20:03;;;;;;;43.40;22.00;;;;;;;0.47;71.78;99172.94;432460;1271;108913;-41
2022/03/09 02:30:14;;;;;;;73.90;31.90;;;;;;;0.60;71.91;99170.55;433392;1259;98008;-41
2022/03/09 02:40:20;;;;;;;66.70;30.20;;;;;;;0.66;72.02;99172.66;433020;1270;110239;-41
2022/03/09 02:50:27;;;;;;;67.20;31.10;;;;;;;0.62;72.23;99180.29;432482;1271;108798;-41
2022/03/09 03:00:34;;;;;;;65.00;28.50;;;;;;;0.54;72.09;99177.65;432791;1270;108821;-41
2022/03/09 03:10:41;;;;;;;59.20;27.20;;;;;;;0.52;72.46;99168.14;432875;1270;97520;-45
2022/03/09 03:20:48;;;;;;;41.60;22.60;;;;;;;0.63;72.50;99164.77;432832;1270;111725;-42
2022/03/09 03:30:55;;;;;;;32.20;19.80;;;;;;;0.85;72.59;99170.70;432890;1270;108517;-41
2022/03/09 03:41:02;;;;;;;61.70;26.60;;;;;;;1.13;72.75;99173.71;432799;1270;97881;-43
2022/03/09 03:51:09;;;;;;;58.30;27.90;;;;;;;1.18;72.51;99168.02;433118;1270;108842;-41
2022/03/09 04:01:16;;;;;;;81.30;35.70;;;;;;;1.01;72.53;99160.70;432914;1270;108882;-42
2022/03/09 04:11:24;;;;;;;74.10;33.00;;;;;;;0.81;72.45;99157.92;432609;1270;97903;-40
2022/03/09 04:21:31;;;;;;;84.40;36.50;;;;;;;0.64;72.67;99158.08;432644;1270;111064;-41
2022/03/09 04:31:39;;;;;;;112.30;49.30;;;;;;;0.50;72.77;99155.83;432816;1270;108819;-40
2022/03/09 04:41:48;;;;;;;52.60;27.10;;;;;;;0.52;72.77;99153.48;432971;1270;108785;-42
2022/03/09 04:51:55;;;;;;;37.90;20.90;;;;;;;0.67;73.04;99150.87;433031;1270;96600;-40
2022/03/09 05:02:02;;;;;;;47.00;24.10;;;;;;;0.81;73.03;99157.77;432869;1270;108904;-42
2022/03/09 05:12:11;;;;;;;48.50;22.80;;;;;;;0.69;72.85;99161.40;433058;1270;97936;-42
2022/03/09 05:22:18;;;;;;;51.40;24.00;;;;;;;0.49;72.97;99166.70;432980;1270;96977;-42
2022/03/09 05:32:31;;;;;;;56.70;28.30;;;;;;;0.30;73.02;99168.72;432813;1270;110549;-39
2022/03/09 05:42:38;;;;;;;57.50;30.40;;;;;;;0.22;73.42;99169.89;432789;1270;108978;-41
2022/03/09 05:52:46;;;;;;;171.20;65.20;;;;;;;0.22;73.44;99172.31;432892;1270;109300;-43
2022/03/09 06:02:54;;;;;;;84.60;41.80;;;;;;;0.38;73.35;99181.10;432722;1270;97516;-41
2022/03/09 06:13:01;;;;;;;59.20;31.70;;;;;;;0.66;73.35;99193.62;432792;1270;111534;-40
2022/03/09 06:23:08;;;;;;;41.10;24.20;;;;;;;0.91;73.58;99193.84;432621;1270;109320;-41
2022/03/09 06:33:15;;;;;;;75.70;31.80;;;;;;;1.09;73.73;99189.64;432885;1269;97950;-42
2022/03/09 06:43:22;;;;;;;65.30;34.50;;;;;;;1.18;73.75;99190.73;432465;1271;110935;-40
2022/03/09 06:53:29;;;;;;;66.70;33.20;;;;;;;1.28;73.93;99195.46;432921;1270;108989;-42
2022/03/09 07:03:36;;;;;;;41.00;22.00;;;;;;;1.46;74.22;99205.46;432586;1270;108919;-40
2022/03/09 07:13:50;;;;;;;41.20;23.40;;;;;;;1.66;74.46;99215.58;432507;1271;96709;-41
2022/03/09 07:23:57;;;;;;;69.30;32.30;;;;;;;1.80;74.55;99220.33;432539;1270;108870;-41
2022/03/09 07:34:05;;;;;;;64.50;33.60;;;;;;;1.88;74.52;99216.54;432585;1271;108576;-40
2022/03/09 07:44:12;;;;;;;44.30;23.00;;;;;;;2.11;74.21;99220.02;432450;1270;97920;-40
2022/03/09 07:54:20;;;;;;;47.00;23.10;;;;;;;2.48;73.72;99218.77;432477;1271;108981;-42
2022/03/09 08:04:27;;;;;;;64.00;27.50;;;;;;;2.61;72.99;99218.05;432633;1271;97481;-40
2022/03/09 08:14:34;;;;;;;55.50;29.50;;;;;;;2.80;72.86;99227.33;432441;1271;97902;-40
2022/03/09 08:34:48;;;;;;;51.60;24.30;;;;;;;3.11;71.28;99231.95;432733;1271;108765;-42
2022/03/09 08:44:55;;;;;;;44.00;22.10;;;;;;;3.39;70.76;99227.80;432554;1271;96688;-40
2022/03/09 08:55:04;;;;;;;50.00;25.80;;;;;;;4.11;69.16;99217.44;432432;1271;96663;-42
2022/03/09 09:05:12;;;;;;;42.80;23.60;;;;;;;4.62;68.47;99221.02;432426;1271;235009;-40
2022/03/09 09:25:27;;;;;;;53.00;19.50;;;;;;;5.62;64.57;99217.60;432687;1271;108795;-43
2022/03/09 09:35:34;;;;;;;38.70;18.30;;;;;;;5.70;64.10;99211.77;432629;1271;98483;-41
2022/03/09 09:45:45;;;;;;;35.60;15.30;;;;;;;5.95;62.25;99209.49;432566;1271;111867;-40
2022/03/09 09:55:52;;;;;;;28.50;12.10;;;;;;;5.92;60.60;99204.94;432689;1270;109349;-41
2022/03/09 10:05:58;;;;;;;21.60;12.70;;;;;;;5.87;58.34;99208.49;432449;1270;108667;-41
2022/03/09 10:16:15;;;;;;;47.30;13.80;;;;;;;6.00;57.54;99215.45;432571;1270;96662;-41
2022/03/09 10:26:23;;;;;;;22.00;11.90;;;;;;;5.93;55.52;99217.73;432743;1270;111172;-40
2022/03/09 10:36:31;;;;;;;24.10;11.10;;;;;;;6.06;52.33;99216.73;432464;1271;108769;-41
2022/03/09 10:46:41;;;;;;;22.70;10.20;;;;;;;6.39;52.08;99198.27;432503;1270;108915;-41
2022/03/09 10:56:49;;;;;;;24.10;10.30;;;;;;;6.60;50.73;99194.41;432714;1271;98135;-42
2022/03/09 11:06:57;;;;;;;18.10;8.10;;;;;;;7.01;49.98;99191.64;432683;1271;109875;-42
2022/03/09 11:17:05;;;;;;;19.70;8.10;;;;;;;7.40;49.30;99186.98;432738;1271;107851;-44
2022/03/09 11:27:14;;;;;;;13.70;7.40;;;;;;;7.47;49.07;99191.22;432547;1270;108859;-41
2022/03/09 11:37:34;;;;;;;13.90;6.70;;;;;;;7.43;46.97;99185.20;432709;1270;97929;-42
2022/03/09 11:47:58;;;;;;;11.70;6.30;;;;;;;7.61;47.24;99168.55;432707;1271;111064;-42
2022/03/09 11:58:09;;;;;;;10.40;5.70;;;;;;;7.81;46.89;99165.34;432514;1270;109369;-40
2022/03/09 12:08:16;;;;;;;23.70;14.80;;;;;;;7.56;46.17;99166.23;432597;1270;108655;-41
2022/03/09 12:18:42;;;;;;;23.30;11.90;;;;;;;7.40;46.86;99174.06;432538;1270;97904;-41
2022/03/09 12:28:46;;;;;;;11.80;7.40;;;;;;;7.45;47.67;99174.24;432554;1270;109941;-42
2022/03/09 12:38:56;;;;;;;11.80;7.00;;;;;;;7.19;47.74;99169.11;432542;1271;109027;-40
2022/03/09 13:09:24;;;;;;;19.00;7.70;;;;;;;7.33;47.91;99157.51;432546;1271;111122;-42
2022/03/09 13:19:31;;;;;;;13.70;7.80;;;;;;;7.41;48.19;99166.02;432405;1270;108031;-42
2022/03/09 13:29:44;;;;;;;15.30;7.60;;;;;;;7.42;47.46;99157.69;432464;1270;108864;-42
2022/03/09 13:39:54;;;;;;;11.60;5.20;;;;;;;7.36;46.55;99152.56;432519;1271;97911;-41
2022/03/09 13:50:02;;;;;;;15.30;6.10;;;;;;;7.37;45.15;99154.80;432552;1270;111051;-44
2022/03/09 14:00:25;;;;;;;10.90;5.80;;;;;;;7.28;44.48;99162.91;432669;1271;108803;-41
2022/03/09 14:10:28;;;;;;;11.60;6.50;;;;;;;7.28;44.14;99167.23;432577;1270;108736;-41
2022/03/09 14:30:39;;;;;;;22.10;8.90;;;;;;;7.18;43.93;99168.81;432684;1271;97903;-42
2022/03/09 14:40:46;;;;;;;13.40;8.20;;;;;;;7.03;44.70;99165.20;432387;1271;108889;-42
2022/03/09 15:01:00;;;;;;;24.10;8.80;;;;;;;6.87;45.87;99164.27;432556;1271;96686;-44
2022/03/09 15:11:08;;;;;;;19.00;9.30;;;;;;;6.73;46.51;99172.66;432506;1271;111003;-41
2022/03/09 15:21:16;;;;;;;19.90;9.10;;;;;;;6.66;47.33;99171.65;432562;1271;108685;-42
2022/03/09 15:31:24;;;;;;;29.30;13.40;;;;;;;6.53;47.78;99169.31;432699;1270;97504;-41
2022/03/09 15:41:31;;;;;;;20.30;10.20;;;;;;;6.33;48.01;99175.09;432581;1271;97894;-40
2022/03/09 15:51:39;;;;;;;19.40;10.00;;;;;;;6.26;48.49;99189.29;432603;1270;111053;-42
2022/03/09 16:01:46;;;;;;;16.80;10.00;;;;;;;6.20;49.09;99201.40;432641;1270;108818;-42
2022/03/09 16:11:54;;;;;;;27.50;11.60;;;;;;;6.16;49.52;99212.02;432708;1269;108799;-41
2022/03/09 16:22:00;;;;;;;38.80;16.80;;;;;;;6.11;49.80;99217.98;432427;1270;97920;-44
2022/03/09 16:32:09;;;;;;;35.40;16.70;;;;;;;5.97;50.43;99225.91;432656;1269;111068;-41
2022/03/09 16:42:16;;;;;;;31.90;14.30;;;;;;;5.80;50.83;99242.54;432459;1270;108772;-44
2022/03/09 16:52:22;;;;;;;153.70;25.50;;;;;;;5.65;51.06;99250.85;432493;1270;108812;-40
2022/03/09 17:02:30;;;;;;;28.90;14.20;;;;;;;5.51;51.33;99251.63;432654;1270;98000;-40
2022/03/09 17:12:38;;;;;;;48.80;26.00;;;;;;;5.37;51.35;99260.41;432552;1269;111128;-41
2022/03/09 17:22:45;;;;;;;67.30;34.90;;;;;;;5.27;51.40;99267.29;432683;1271;108305;-40
2022/03/09 17:32:53;;;;;;;107.30;36.70;;;;;;;5.17;51.53;99277.15;432660;1271;107821;-43
2022/03/09 17:43:00;;;;;;;75.70;33.40;;;;;;;5.08;51.65;99286.29;432507;1271;97896;-44
2022/03/09 17:53:07;;;;;;;65.80;31.50;;;;;;;5.01;51.72;99293.08;432493;1270;111115;-41
2022/03/09 18:03:14;;;;;;;162.80;73.40;;;;;;;4.94;51.96;99296.45;432556;1270;108816;-41
2022/03/09 18:13:22;;;;;;;104.60;47.40;;;;;;;4.85;52.18;99304.46;432601;1271;108888;-44
2022/03/09 18:23:30;;;;;;;47.80;24.80;;;;;;;4.76;52.35;99299.25;432849;1270;97471;-43
2022/03/09 18:33:39;;;;;;;38.90;17.40;;;;;;;4.69;52.63;99303.02;432708;1270;111104;-42
2022/03/09 18:43:47;;;;;;;34.10;19.10;;;;;;;4.63;52.95;99312.46;432531;1270;107878;-43
2022/03/09 18:53:54;;;;;;;37.30;19.90;;;;;;;4.58;53.34;99322.61;432522;1270;108832;-43
2022/03/09 19:04:02;;;;;;;43.60;22.90;;;;;;;4.52;53.74;99336.41;432495;1271;97900;-42
2022/03/09 19:14:10;;;;;;;37.40;21.00;;;;;;;4.46;54.22;99349.06;432519;1271;110077;-42
2022/03/09 19:24:17;;;;;;;40.10;20.20;;;;;;;4.39;54.79;99366.62;432518;1270;109114;-40
2022/03/09 19:34:24;;;;;;;69.20;23.00;;;;;;;4.36;55.24;99373.48;432464;1271;108784;-43
2022/03/09 19:44:37;;;;;;;36.70;16.60;;;;;;;4.35;55.45;99384.10;432492;1270;97580;-40
2022/03/09 19:54:43;;;;;;;47.90;19.20;;;;;;;4.31;55.82;99388.18;432620;1270;110064;-43
2022/03/09 20:04:49;;;;;;;42.10;17.70;;;;;;;4.26;56.11;99390.29;432379;1271;108907;-42
2022/03/09 20:14:55;;;;;;;60.50;22.00;;;;;;;4.23;56.48;99401.61;432581;1270;108608;-41
2022/03/09 20:25:03;;;;;;;54.50;22.20;;;;;;;4.17;56.70;99415.30;432633;1270;97036;-41
2022/03/09 20:35:11;;;;;;;53.10;23.20;;;;;;;4.17;57.10;99434.26;432621;1270;111541;-41
2022/03/09 20:45:18;;;;;;;32.70;16.20;;;;;;;4.18;57.62;99441.26;432653;1271;108885;-41
2022/03/09 20:55:26;;;;;;;17.60;9.80;;;;;;;4.31;58.36;99444.04;432474;1270;108777;-42
2022/03/09 21:05:32;;;;;;;19.70;10.30;;;;;;;4.37;59.37;99460.93;430293;1270;3331014;-41
2022/03/09 21:15:40;;;;;;;23.90;11.70;;;;;;;4.31;60.38;99473.71;432519;1269;111264;-41
2022/03/09 21:25:50;;;;;;;13.20;8.50;;;;;;;4.23;61.60;99488.61;432548;1271;107798;-42
2022/03/09 21:35:58;;;;;;;22.40;12.50;;;;;;;4.16;63.86;99494.36;432738;1271;97498;-43
2022/03/09 21:46:04;;;;;;;14.40;9.60;;;;;;;3.96;64.99;99495.64;432514;1271;109999;-43
2022/03/09 21:56:11;;;;;;;14.50;9.40;;;;;;;3.86;65.97;99495.89;432603;1270;108880;-41
2022/03/09 22:06:18;;;;;;;21.70;11.00;;;;;;;3.70;66.61;99513.42;432414;1270;97561;-42
2022/03/09 22:16:26;;;;;;;8.40;6.20;;;;;;;3.49;67.13;99526.69;432514;1271;96655;-42
2022/03/09 22:26:33;;;;;;;14.30;8.80;;;;;;;3.26;68.07;99534.69;432632;1270;111833;-44
2022/03/09 22:36:40;;;;;;;11.60;8.40;;;;;;;3.02;68.80;99548.20;432741;1270;108809;-41
2022/03/09 22:47:08;;;;;;;14.10;8.20;;;;;;;2.91;68.83;99565.51;432537;1270;97542;-43
2022/03/09 22:57:15;;;;;;;18.40;11.20;;;;;;;2.78;68.88;99572.36;432605;1271;108813;-43
2022/03/09 23:07:21;;;;;;;11.80;8.60;;;;;;;2.65;69.51;99582.95;432562;1271;107759;-43
2022/03/09 23:17:28;;;;;;;20.90;11.90;;;;;;;2.47;69.38;99597.72;432538;1270;97933;-42
2022/03/09 23:37:44;;;;;;;17.00;11.30;;;;;;;2.22;68.91;99627.02;432559;1270;109031;-42
2022/03/09 23:47:51;;;;;;;30.00;15.70;;;;;;;2.09;69.21;99643.05;432426;1271;97929;-41
2022/03/09 23:57:58;;;;;;;25.20;13.60;;;;;;;1.92;68.93;99656.17;432655;1271;97519;-41
